createdAt,value
2023-01-13T00:01:27.350Z,95355.91
2023-01-13T00:03:53.838Z,95352.72
2023-01-13T00:06:23.139Z,95347.03
2023-01-13T00:08:51.188Z,95333.53
2023-01-13T00:11:18.751Z,95331.13
2023-01-13T00:13:45.680Z,95325.22
2023-01-13T00:16:14.941Z,95329.31
2023-01-13T00:18:41.948Z,95333.13
2023-01-13T00:21:12.933Z,95325.59
2023-01-13T00:23:39.851Z,95322.09
2023-01-13T00:26:12.598Z,95324.59
2023-01-13T00:28:39.653Z,95312.19
2023-01-13T00:31:12.029Z,95304.97
2023-01-13T00:33:38.879Z,95309.56
2023-01-13T00:36:07.459Z,95305.28
2023-01-13T00:38:36.112Z,95309.16
2023-01-13T00:41:05.770Z,95291.44
2023-01-13T00:43:33.932Z,95288.53
2023-01-13T00:46:00.383Z,95287.38
2023-01-13T00:48:28.106Z,95292.63
2023-01-13T00:51:08.843Z,95281.84
2023-01-13T00:53:40.477Z,95288.31
2023-01-13T00:56:11.576Z,95288.84
2023-01-13T00:58:38.056Z,95282.63
2023-01-13T01:01:11.354Z,95280.00
2023-01-13T01:03:38.304Z,95288.59
2023-01-13T01:06:13.241Z,95282.41
2023-01-13T01:08:40.738Z,95288.91
2023-01-13T01:11:15.569Z,95287.06
2023-01-13T01:13:42.615Z,95286.78
2023-01-13T01:16:12.130Z,95288.97
2023-01-13T01:18:41.404Z,95289.28
2023-01-13T01:21:08.970Z,95286.88
2023-01-13T01:23:36.433Z,95292.56
2023-01-13T01:26:12.589Z,95289.06
2023-01-13T01:28:39.361Z,95286.56
2023-01-13T01:31:08.001Z,95287.16
2023-01-13T01:33:34.771Z,95283.66
2023-01-13T01:36:02.571Z,95281.38
2023-01-13T01:38:29.149Z,95274.03
2023-01-13T01:40:55.892Z,95265.84
2023-01-13T01:43:23.421Z,95264.97
2023-01-13T01:45:50.022Z,95258.28
2023-01-13T01:48:16.501Z,95266.00
2023-01-13T01:50:43.036Z,95261.00
2023-01-13T01:53:14.603Z,95259.53
2023-01-13T01:55:42.176Z,95261.94
2023-01-13T01:58:44.995Z,95254.06
2023-01-13T02:01:15.856Z,95254.19
2023-01-13T02:03:47.527Z,95245.50
2023-01-13T02:06:14.982Z,95248.59
2023-01-13T02:08:41.535Z,95241.03
2023-01-13T02:11:08.129Z,95244.22
2023-01-13T02:13:34.753Z,95230.44
2023-01-13T02:16:21.579Z,95229.41
2023-01-13T02:19:08.621Z,95217.53
2023-01-13T02:22:01.855Z,95219.31
2023-01-13T02:24:40.321Z,95224.19
2023-01-13T02:27:29.508Z,95215.50
2023-01-13T02:30:17.839Z,95206.03
2023-01-13T02:32:58.069Z,95205.94
2023-01-13T02:35:31.621Z,95208.50
2023-01-13T02:38:01.063Z,95204.44
2023-01-13T02:40:36.888Z,95200.03
2023-01-13T02:43:14.684Z,95198.84
2023-01-13T02:45:53.482Z,95201.44
2023-01-13T02:48:22.645Z,95185.59
2023-01-13T02:50:58.078Z,95185.81
2023-01-13T02:53:34.267Z,95183.31
2023-01-13T02:56:02.580Z,95169.38
2023-01-13T02:58:31.108Z,95169.56
2023-01-13T03:00:57.937Z,95177.09
2023-01-13T03:03:25.027Z,95167.91
2023-01-13T03:05:55.925Z,95175.41
2023-01-13T03:08:31.269Z,95171.56
2023-01-13T03:11:08.347Z,95175.59
2023-01-13T03:13:51.433Z,95173.38
2023-01-13T03:16:51.606Z,95165.56
2023-01-13T03:19:32.155Z,95170.38
2023-01-13T03:22:20.197Z,95165.78
2023-01-13T03:24:52.996Z,95156.56
2023-01-13T03:27:27.822Z,95160.56
2023-01-13T03:30:07.237Z,95158.47
2023-01-13T03:32:38.600Z,95165.78
2023-01-13T03:35:16.496Z,95164.16
2023-01-13T03:37:49.022Z,95150.66
2023-01-13T03:40:27.286Z,95156.06
2023-01-13T03:43:00.469Z,95145.25
2023-01-13T03:45:27.919Z,95152.56
2023-01-13T03:47:59.900Z,95152.56
2023-01-13T03:50:30.754Z,95157.97
2023-01-13T03:53:20.832Z,95154.47
2023-01-13T03:55:51.138Z,95157.97
2023-01-13T03:58:29.848Z,95153.66
2023-01-13T04:01:01.160Z,95149.06
2023-01-13T04:03:42.245Z,95150.97
2023-01-13T04:06:21.812Z,95149.88
2023-01-13T04:08:58.382Z,95157.97
2023-01-13T04:11:42.564Z,95156.38
2023-01-13T04:14:11.935Z,95156.38
2023-01-13T04:16:38.878Z,95158.75
2023-01-13T04:19:05.573Z,95157.97
2023-01-13T04:21:33.637Z,95138.53
2023-01-13T04:24:00.236Z,95129.28
2023-01-13T04:26:26.697Z,95128.03
2023-01-13T04:28:53.228Z,95129.97
2023-01-13T04:31:19.870Z,95144.56
2023-01-13T04:33:46.375Z,95138.38
2023-01-13T04:36:13.046Z,95142.97
2023-01-13T04:38:39.824Z,95138.66
2023-01-13T04:41:06.621Z,95134.88
2023-01-13T04:43:33.195Z,95139.16
2023-01-13T04:45:59.650Z,95132.66
2023-01-13T04:48:26.266Z,95133.44
2023-01-13T04:50:52.765Z,95124.25
2023-01-13T04:53:19.247Z,95127.75
2023-01-13T04:55:45.828Z,95128.03
2023-01-13T04:58:12.399Z,95128.88
2023-01-13T05:00:39.271Z,95133.16
2023-01-13T05:03:05.843Z,95127.75
2023-01-13T05:05:32.527Z,95125.56
2023-01-13T05:07:59.267Z,95123.63
2023-01-13T05:10:26.389Z,95128.25
2023-01-13T05:12:52.909Z,95127.13
2023-01-13T05:15:19.676Z,95120.31
2023-01-13T05:17:46.645Z,95126.53
2023-01-13T05:20:13.527Z,95122.72
2023-01-13T05:22:39.993Z,95117.31
2023-01-13T05:25:09.139Z,95124.03
2023-01-13T05:27:36.153Z,95126.91
2023-01-13T05:30:03.179Z,95117.97
2023-01-13T05:32:29.751Z,95120.91
2023-01-13T05:34:56.633Z,95117.59
2023-01-13T05:37:24.429Z,95118.84
2023-01-13T05:39:51.406Z,95122.84
2023-01-13T05:42:17.848Z,95116.06
2023-01-13T05:44:44.437Z,95116.53
2023-01-13T05:47:10.950Z,95117.81
2023-01-13T05:49:37.435Z,95112.09
2023-01-13T05:52:08.549Z,95115.31
2023-01-13T05:54:35.093Z,95115.78
2023-01-13T05:57:01.534Z,95120.88
2023-01-13T05:59:28.065Z,95135.19
2023-01-13T06:01:54.578Z,95130.09
2023-01-13T06:04:21.169Z,95128.22
2023-01-13T06:06:47.668Z,95131.41
2023-01-13T06:09:14.437Z,95117.09
2023-01-13T06:11:40.947Z,95114.78
2023-01-13T06:14:07.692Z,95112.28
2023-01-13T06:16:34.396Z,95112.00
2023-01-13T06:19:01.013Z,95117.88
2023-01-13T06:21:27.633Z,95126.47
2023-01-13T06:23:54.445Z,95117.75
2023-01-13T06:26:24.968Z,95120.94
2023-01-13T06:28:51.457Z,95112.50
2023-01-13T06:31:19.070Z,95117.31
2023-01-13T06:34:00.156Z,95112.50
2023-01-13T06:36:31.272Z,95108.41
2023-01-13T06:39:01.707Z,95106.19
2023-01-13T06:41:30.911Z,95114.28
2023-01-13T06:43:57.515Z,95117.50
2023-01-13T06:46:24.140Z,95118.28
2023-01-13T06:48:50.791Z,95115.28
2023-01-13T06:51:17.239Z,95117.69
2023-01-13T06:53:44.001Z,95113.88
2023-01-13T06:56:10.516Z,95115.44
2023-01-13T06:58:37.000Z,95114.34
2023-01-13T07:01:03.692Z,95120.25
2023-01-13T07:03:30.430Z,95121.84
2023-01-13T07:05:56.963Z,95119.47
2023-01-13T07:08:24.500Z,95115.44
2023-01-13T07:10:51.343Z,95116.69
2023-01-13T07:13:18.264Z,95115.59
2023-01-13T07:15:55.307Z,95115.09
2023-01-13T07:18:21.962Z,95117.19
2023-01-13T07:20:55.632Z,95119.28
2023-01-13T07:23:23.161Z,95113.56
2023-01-13T07:25:55.123Z,95126.44
2023-01-13T07:28:21.715Z,95126.66
2023-01-13T07:30:48.264Z,95122.50
2023-01-13T07:33:14.905Z,95123.31
2023-01-13T07:35:41.610Z,95128.41
2023-01-13T07:38:08.103Z,95128.13
2023-01-13T07:40:34.941Z,95134.78
2023-01-13T07:43:01.570Z,95128.75
2023-01-13T07:45:28.227Z,95133.56
2023-01-13T07:47:54.732Z,95126.72
2023-01-13T07:50:21.470Z,95131.53
2023-01-13T07:52:47.990Z,95123.09
2023-01-13T07:55:14.592Z,95129.78
2023-01-13T07:57:41.465Z,95138.06
2023-01-13T08:00:09.410Z,95131.25
2023-01-13T08:02:37.083Z,95136.81
2023-01-13T08:05:03.892Z,95130.00
2023-01-13T08:07:30.400Z,95134.00
2023-01-13T08:09:56.976Z,95147.38
2023-01-13T08:12:23.479Z,95145.16
2023-01-13T08:14:49.985Z,95157.28
2023-01-13T08:17:16.460Z,95149.31
2023-01-13T08:19:43.043Z,95154.13
2023-01-13T08:22:09.729Z,95142.66
2023-01-13T08:24:36.288Z,95150.16
2023-01-13T08:27:02.902Z,95144.91
2023-01-13T08:29:29.438Z,95146.22
2023-01-13T08:31:55.986Z,95154.03
2023-01-13T08:34:22.514Z,95152.25
2023-01-13T08:36:50.093Z,95151.63
2023-01-13T08:39:16.573Z,95146.69
2023-01-13T08:41:43.745Z,95145.44
2023-01-13T08:44:10.329Z,95145.63
2023-01-13T08:46:37.186Z,95140.38
2023-01-13T08:49:04.138Z,95145.94
2023-01-13T08:51:30.668Z,95146.09
2023-01-13T08:53:57.150Z,95151.22
2023-01-13T08:56:23.727Z,95151.72
2023-01-13T08:58:50.195Z,95165.91
2023-01-13T09:01:21.343Z,95164.50
2023-01-13T09:03:47.978Z,95164.66
2023-01-13T09:06:14.441Z,95168.66
2023-01-13T09:08:41.316Z,95169.63
2023-01-13T09:11:17.770Z,95156.25
2023-01-13T09:13:44.272Z,95158.31
2023-01-13T09:16:10.855Z,95165.78
2023-01-13T09:18:37.338Z,95176.81
2023-01-13T09:21:04.120Z,95182.72
2023-01-13T09:23:30.617Z,95189.44
2023-01-13T09:25:57.190Z,95178.44
2023-01-13T09:28:23.724Z,95175.56
2023-01-13T09:30:50.225Z,95169.97
2023-01-13T09:33:16.732Z,95172.03
2023-01-13T09:35:43.177Z,95170.16
2023-01-13T09:38:09.813Z,95176.19
2023-01-13T09:40:38.920Z,95183.38
2023-01-13T09:43:18.260Z,95171.09
2023-01-13T09:46:11.134Z,95181.78
2023-01-13T09:48:39.562Z,95173.94
2023-01-13T09:51:17.233Z,95172.66
2023-01-13T09:53:50.576Z,95182.41
2023-01-13T09:56:17.211Z,95175.84
2023-01-13T09:58:46.020Z,95177.13
2023-01-13T10:01:37.037Z,95172.31
2023-01-13T10:04:14.380Z,95159.72
2023-01-13T10:06:44.107Z,95149.13
2023-01-13T10:09:41.416Z,95151.53
2023-01-13T10:12:15.834Z,95144.69
2023-01-13T10:14:52.566Z,95142.75
2023-01-13T10:17:32.443Z,95148.81
2023-01-13T10:20:32.799Z,95140.34
2023-01-13T10:23:28.129Z,95131.06
2023-01-13T10:26:00.581Z,95127.03
2023-01-13T10:28:27.136Z,95134.38
2023-01-13T10:30:53.971Z,95136.91
2023-01-13T10:33:27.896Z,95124.25
2023-01-13T10:35:58.900Z,95126.50
2023-01-13T10:38:38.146Z,95129.50
2023-01-13T10:41:06.322Z,95116.69
2023-01-13T10:43:32.819Z,95114.75
2023-01-13T10:46:06.088Z,95125.53
2023-01-13T10:48:39.628Z,95124.84
2023-01-13T10:51:29.523Z,95117.06
2023-01-13T10:54:12.565Z,95111.13
2023-01-13T10:56:41.603Z,95126.25
2023-01-13T10:59:24.882Z,95115.28
2023-01-13T11:02:24.815Z,95114.75
2023-01-13T11:04:55.852Z,95108.78
2023-01-13T11:07:30.988Z,95099.63
2023-01-13T11:10:09.306Z,95101.81
2023-01-13T11:13:02.645Z,95098.88
2023-01-13T11:15:41.689Z,95092.31
2023-01-13T11:18:18.364Z,95080.22
2023-01-13T11:20:47.634Z,95067.97
2023-01-13T11:23:29.480Z,95080.09
2023-01-13T11:26:26.898Z,95074.31
2023-01-13T11:29:00.371Z,95072.66
2023-01-13T11:31:46.280Z,95076.63
2023-01-13T11:34:36.357Z,95076.59
2023-01-13T11:37:12.208Z,95088.63
2023-01-13T11:39:54.496Z,95090.75
2023-01-13T11:42:26.537Z,95085.88
2023-01-13T11:44:58.589Z,95082.97
2023-01-13T11:47:26.862Z,95093.84
2023-01-13T11:49:53.940Z,95090.44
2023-01-13T11:52:47.506Z,95081.91
2023-01-13T11:55:31.033Z,95073.72
2023-01-13T11:58:35.980Z,95077.72
2023-01-13T12:01:39.469Z,95078.03
2023-01-13T12:04:23.598Z,95077.97
2023-01-13T12:07:13.281Z,95065.41
2023-01-13T12:10:13.734Z,95076.69
2023-01-13T12:12:53.568Z,95086.78
2023-01-13T12:15:28.141Z,95085.19
2023-01-13T12:18:00.317Z,95088.56
2023-01-13T12:20:39.211Z,95084.06
2023-01-13T12:23:19.063Z,95092.34
2023-01-13T12:25:49.594Z,95080.81
2023-01-13T12:28:41.133Z,95081.25
2023-01-13T12:31:08.489Z,95084.38
2023-01-13T12:34:07.595Z,95092.75
2023-01-13T12:37:05.172Z,95097.78
2023-01-13T12:39:57.617Z,95102.00
2023-01-13T12:42:45.418Z,95111.03
2023-01-13T12:45:12.069Z,95106.84
2023-01-13T12:47:40.947Z,95108.47
2023-01-13T12:50:22.737Z,95123.91
2023-01-13T12:53:31.948Z,95115.94
2023-01-13T12:56:36.576Z,95121.06
2023-01-13T12:59:18.656Z,95118.84
2023-01-13T13:01:50.301Z,95109.78
2023-01-13T13:04:41.423Z,95139.09
2023-01-13T13:07:12.461Z,95146.94
2023-01-13T13:10:05.773Z,95119.00
2023-01-13T13:12:41.109Z,95101.97
2023-01-13T13:15:20.606Z,95113.84
2023-01-13T13:18:33.380Z,95101.41
2023-01-13T13:21:09.823Z,95118.88
2023-01-13T13:23:38.127Z,95113.97
2023-01-13T13:26:20.173Z,95130.75
2023-01-13T13:29:04.449Z,95132.69
2023-01-13T13:31:49.717Z,95127.25
2023-01-13T13:34:37.386Z,95114.00
2023-01-13T13:37:28.547Z,95106.38
2023-01-13T13:39:55.410Z,95095.75
2023-01-13T13:42:35.289Z,95117.03
2023-01-13T13:45:11.939Z,95111.56
2023-01-13T13:47:39.471Z,95112.03
2023-01-13T13:50:17.790Z,95133.00
2023-01-13T13:52:58.828Z,95129.94
2023-01-13T13:55:29.750Z,95140.81
2023-01-13T13:57:57.441Z,95144.00
2023-01-13T14:00:25.881Z,95132.59
2023-01-13T14:03:06.708Z,95150.34
2023-01-13T14:05:35.350Z,95155.97
2023-01-13T14:08:18.111Z,95135.53
2023-01-13T14:10:46.254Z,95145.75
2023-01-13T14:13:19.888Z,95147.41
2023-01-13T14:15:48.315Z,95161.81
2023-01-13T14:18:18.700Z,95172.53
2023-01-13T14:20:53.318Z,95185.50
2023-01-13T14:23:24.746Z,95200.84
2023-01-13T14:25:52.026Z,95226.13
2023-01-13T14:28:31.120Z,95282.88
2023-01-13T14:30:58.767Z,95322.38
2023-01-13T14:33:42.791Z,95323.50
2023-01-13T14:36:34.375Z,95326.38
2023-01-13T14:39:03.805Z,95328.41
2023-01-13T14:41:39.756Z,95323.00
2023-01-13T14:44:32.045Z,95331.59
2023-01-13T14:47:04.760Z,95339.63
2023-01-13T14:49:40.309Z,95339.25
2023-01-13T14:52:24.503Z,95333.44
2023-01-13T14:54:52.345Z,95333.16
2023-01-13T14:57:26.384Z,95343.72
2023-01-13T15:00:00.918Z,95332.41
2023-01-13T15:02:30.400Z,95342.66
2023-01-13T15:05:17.784Z,95343.38
2023-01-13T15:07:53.194Z,95343.34
2023-01-13T15:10:23.384Z,95347.03
2023-01-13T15:12:52.790Z,95340.41
2023-01-13T15:15:29.357Z,95345.38
2023-01-13T15:17:56.449Z,95346.78
2023-01-13T15:20:24.683Z,95352.19
2023-01-13T15:22:51.809Z,95341.53
2023-01-13T15:25:19.066Z,95332.25
2023-01-13T15:27:48.214Z,95339.84
2023-01-13T15:30:15.703Z,95360.34
2023-01-13T15:32:43.119Z,95373.03
2023-01-13T15:35:14.189Z,95380.03
2023-01-13T15:37:41.882Z,95391.84
2023-01-13T15:40:20.067Z,95377.06
2023-01-13T15:42:46.758Z,95370.56
2023-01-13T15:45:13.403Z,95378.13
2023-01-13T15:47:39.959Z,95381.41
2023-01-13T15:50:13.045Z,95384.72
2023-01-13T15:52:39.607Z,95389.59
2023-01-13T15:55:06.332Z,95387.50
2023-01-13T15:57:35.423Z,95385.09
2023-01-13T16:00:07.765Z,95390.56
2023-01-13T16:02:34.596Z,95407.63
2023-01-13T16:06:00.085Z,95417.19
2023-01-13T16:08:26.576Z,95425.06
2023-01-13T16:10:53.106Z,95420.25
2023-01-13T16:14:24.983Z,95434.31
2023-01-13T16:16:51.469Z,95432.47
2023-01-13T16:19:17.968Z,95433.84
2023-01-13T16:21:44.571Z,95434.47
2023-01-13T16:24:11.176Z,95439.84
2023-01-13T16:26:37.718Z,95445.25
2023-01-13T16:29:04.782Z,95448.44
2023-01-13T16:31:33.339Z,95450.03
2023-01-13T16:34:02.338Z,95457.03
2023-01-13T16:36:30.454Z,95461.06
2023-01-13T16:38:56.979Z,95453.03
2023-01-13T16:41:23.575Z,95458.06
2023-01-13T16:43:50.862Z,95469.38
2023-01-13T16:46:22.083Z,95469.94
2023-01-13T16:48:49.357Z,95468.88
2023-01-13T16:51:16.029Z,95471.28
2023-01-13T16:53:42.650Z,95482.06
2023-01-13T16:56:33.627Z,95478.03
2023-01-13T16:59:05.796Z,95477.53
2023-01-13T17:01:34.683Z,95485.63
2023-01-13T17:04:01.492Z,95483.22
2023-01-13T17:06:46.654Z,95488.41
2023-01-13T17:09:19.303Z,95490.56
2023-01-13T17:11:45.886Z,95493.81
2023-01-13T17:14:18.944Z,95504.63
2023-01-13T17:16:46.474Z,95504.38
2023-01-13T17:19:13.887Z,95507.09
2023-01-13T17:21:40.624Z,95497.66
2023-01-13T17:24:07.434Z,95514.66
2023-01-13T17:26:35.324Z,95509.28
2023-01-13T17:29:02.158Z,95514.13
2023-01-13T17:31:29.510Z,95508.44
2023-01-13T17:33:56.179Z,95507.88
2023-01-13T17:36:24.735Z,95501.47
2023-01-13T17:38:51.851Z,95509.78
2023-01-13T17:41:18.443Z,95506.81
2023-01-13T17:43:45.085Z,95508.13
2023-01-13T17:46:12.734Z,95520.22
2023-01-13T17:48:39.419Z,95519.94
2023-01-13T17:51:11.994Z,95520.75
2023-01-13T17:53:38.502Z,95522.34
2023-01-13T17:56:05.382Z,95526.16
2023-01-13T17:58:31.976Z,95539.63
2023-01-13T18:00:58.544Z,95549.31
2023-01-13T18:03:25.429Z,95559.00
2023-01-13T18:05:51.927Z,95561.44
2023-01-13T18:08:18.439Z,95546.03
2023-01-13T18:10:45.008Z,95553.56
2023-01-13T18:13:11.488Z,95547.09
2023-01-13T18:15:37.993Z,95550.28
2023-01-13T18:18:04.769Z,95554.88
2023-01-13T18:20:31.284Z,95550.78
2023-01-13T18:22:57.926Z,95561.59
2023-01-13T18:25:24.596Z,95553.22
2023-01-13T18:27:51.172Z,95556.16
2023-01-13T18:30:17.808Z,95560.44
2023-01-13T18:32:44.334Z,95565.03
2023-01-13T18:35:10.905Z,95570.72
2023-01-13T18:37:39.214Z,95572.03
2023-01-13T18:40:08.018Z,95581.22
2023-01-13T18:42:35.176Z,95589.09
2023-01-13T18:45:01.756Z,95577.53
2023-01-13T18:47:30.428Z,95596.94
2023-01-13T18:49:57.875Z,95586.16
2023-01-13T18:52:25.438Z,95584.50
2023-01-13T18:54:52.695Z,95584.00
2023-01-13T18:57:19.284Z,95586.41
2023-01-13T18:59:45.901Z,95586.41
2023-01-13T19:02:20.474Z,95590.75
2023-01-13T19:04:47.779Z,95599.63
2023-01-13T19:07:14.615Z,95609.13
2023-01-13T19:09:41.163Z,95619.84
2023-01-13T19:12:08.483Z,95621.97
2023-01-13T19:14:35.297Z,95629.50
2023-01-13T19:17:02.612Z,95623.28
2023-01-13T19:19:29.609Z,95614.09
2023-01-13T19:21:56.193Z,95617.84
2023-01-13T19:24:22.750Z,95614.88
2023-01-13T19:26:49.230Z,95620.06
2023-01-13T19:29:15.740Z,95614.91
2023-01-13T19:31:42.303Z,95617.03
2023-01-13T19:34:08.851Z,95613.03
2023-01-13T19:36:35.409Z,95615.44
2023-01-13T19:39:01.972Z,95619.28
2023-01-13T19:41:28.554Z,95618.22
2023-01-13T19:43:55.144Z,95617.16
2023-01-13T19:46:22.130Z,95621.28
2023-01-13T19:48:48.880Z,95630.16
2023-01-13T19:51:15.345Z,95623.22
2023-01-13T19:53:41.930Z,95635.94
2023-01-13T19:56:13.262Z,95637.31
2023-01-13T19:58:39.791Z,95635.72
2023-01-13T20:01:06.561Z,95651.66
2023-01-13T20:03:33.881Z,95664.59
2023-01-13T20:06:07.813Z,95662.19
2023-01-13T20:08:34.343Z,95665.41
2023-01-13T20:11:00.835Z,95671.34
2023-01-13T20:13:27.381Z,95685.38
2023-01-13T20:15:54.024Z,95678.31
2023-01-13T20:18:20.722Z,95677.75
2023-01-13T20:20:47.184Z,95685.56
2023-01-13T20:23:13.670Z,95686.66
2023-01-13T20:25:42.518Z,95692.00
2023-01-13T20:28:09.058Z,95690.94
2023-01-13T20:30:35.507Z,95698.75
2023-01-13T20:33:02.139Z,95699.81
2023-01-13T20:35:28.701Z,95717.56
2023-01-13T20:37:55.999Z,95715.16
2023-01-13T20:40:22.635Z,95705.16
2023-01-13T20:42:49.083Z,95723.19
2023-01-13T20:45:17.719Z,95734.78
2023-01-13T20:47:45.243Z,95730.78
2023-01-13T20:50:12.781Z,95753.94
2023-01-13T20:52:39.403Z,95766.72
2023-01-13T20:55:07.400Z,95760.19
2023-01-13T20:57:34.492Z,95772.69
2023-01-13T21:00:01.155Z,95766.78
2023-01-13T21:02:27.687Z,95764.47
2023-01-13T21:04:54.188Z,95745.41
2023-01-13T21:07:20.870Z,95746.53
2023-01-13T21:09:47.424Z,95740.66
2023-01-13T21:12:15.273Z,95737.16
2023-01-13T21:14:41.809Z,95738.56
2023-01-13T21:17:10.273Z,95737.53
2023-01-13T21:19:36.799Z,95734.56
2023-01-13T21:22:03.389Z,95739.44
2023-01-13T21:24:30.005Z,95755.34
2023-01-13T21:26:56.510Z,95765.84
2023-01-13T21:29:23.076Z,95768.56
2023-01-13T21:31:49.613Z,95782.03
2023-01-13T21:34:17.192Z,95786.63
2023-01-13T21:36:43.778Z,95783.41
2023-01-13T21:39:10.842Z,95804.13
2023-01-13T21:41:37.395Z,95792.25
2023-01-13T21:44:04.136Z,95789.56
2023-01-13T21:46:30.734Z,95788.53
2023-01-13T21:48:57.248Z,95794.69
2023-01-13T21:51:23.901Z,95791.22
2023-01-13T21:53:50.447Z,95792.00
2023-01-13T21:56:17.087Z,95801.16
2023-01-13T21:58:43.580Z,95806.81
2023-01-13T22:01:10.270Z,95811.97
2023-01-13T22:03:39.474Z,95817.88
2023-01-13T22:06:06.284Z,95826.00
2023-01-13T22:08:32.768Z,95816.56
2023-01-13T22:11:02.500Z,95826.28
2023-01-13T22:13:28.979Z,95823.06
2023-01-13T22:15:55.495Z,95824.44
2023-01-13T22:18:22.037Z,95831.97
2023-01-13T22:20:48.602Z,95840.06
2023-01-13T22:23:15.093Z,95852.66
2023-01-13T22:25:41.608Z,95845.41
2023-01-13T22:28:08.141Z,95851.59
2023-01-13T22:30:34.609Z,95845.97
2023-01-13T22:33:01.137Z,95845.44
2023-01-13T22:35:27.650Z,95851.34
2023-01-13T22:37:54.180Z,95859.69
2023-01-13T22:40:20.722Z,95858.59
2023-01-13T22:42:47.650Z,95850.78
2023-01-13T22:45:14.584Z,95846.78
2023-01-13T22:47:41.632Z,95855.66
2023-01-13T22:50:09.157Z,95847.31
2023-01-13T22:52:35.936Z,95863.44
2023-01-13T22:55:02.571Z,95858.06
2023-01-13T22:57:36.276Z,95871.78
2023-01-13T23:00:10.404Z,95862.66
2023-01-13T23:02:38.476Z,95857.28
2023-01-13T23:05:05.123Z,95855.38
2023-01-13T23:07:31.687Z,95847.31
2023-01-13T23:09:58.205Z,95852.69
2023-01-13T23:12:24.777Z,95854.59
2023-01-13T23:14:51.369Z,95851.34
2023-01-13T23:17:18.315Z,95854.56
2023-01-13T23:19:47.402Z,95851.63
2023-01-13T23:22:13.937Z,95854.03
2023-01-13T23:24:40.448Z,95863.69
2023-01-13T23:27:07.071Z,95865.59
2023-01-13T23:29:33.665Z,95865.06
2023-01-13T23:32:00.324Z,95877.16
2023-01-13T23:34:26.856Z,95868.81
2023-01-13T23:36:53.341Z,95871.78
2023-01-13T23:39:20.157Z,95879.84
2023-01-13T23:41:46.710Z,95879.84
2023-01-13T23:44:13.329Z,95884.13
2023-01-13T23:46:40.145Z,95883.31
2023-01-13T23:49:06.782Z,95865.84
2023-01-13T23:51:33.334Z,95865.56
2023-01-13T23:54:00.099Z,95851.59
2023-01-13T23:56:29.825Z,95855.91
2023-01-13T23:58:57.262Z,95862.88
